sensor_id;sensor_type;location;lat;lon;timestamp;pressure;altitude;pressure_sealevel;temperature;humidity
38054;BME280;23859;50.672;7.164;2022-09-09T00:04:41;100072.91;;;17.94;92.57
38054;BME280;23859;50.672;7.164;2022-09-09T00:09:45;100068.13;;;17.96;93.47
38054;BME280;23859;50.672;7.164;2022-09-09T00:14:55;100067.00;;;17.57;95.14
38054;BME280;23859;50.672;7.164;2022-09-09T00:17:30;100067.72;;;17.44;96.81
38054;BME280;23859;50.672;7.164;2022-09-09T00:22:37;100070.75;;;17.21;98.29
38054;BME280;23859;50.672;7.164;2022-09-09T00:25:18;100068.06;;;17.21;97.90
38054;BME280;23859;50.672;7.164;2022-09-09T00:27:48;100069.75;;;17.22;98.22
38054;BME280;23859;50.672;7.164;2022-09-09T00:30:19;100064.38;;;17.22;99.12
38054;BME280;23859;50.672;7.164;2022-09-09T00:32:58;100060.34;;;17.11;99.10
38054;BME280;23859;50.672;7.164;2022-09-09T00:35:34;100061.56;;;17.09;100.00
38054;BME280;23859;50.672;7.164;2022-09-09T00:38:10;100060.50;;;17.10;99.77
38054;BME280;23859;50.672;7.164;2022-09-09T00:40:53;100062.94;;;17.05;99.58
38054;BME280;23859;50.672;7.164;2022-09-09T00:43:27;100055.03;;;16.97;100.00
38054;BME280;23859;50.672;7.164;2022-09-09T00:48:51;100067.28;;;16.85;100.00
38054;BME280;23859;50.672;7.164;2022-09-09T00:51:42;100078.47;;;16.88;100.00
38054;BME280;23859;50.672;7.164;2022-09-09T00:54:28;100079.75;;;16.92;100.00
38054;BME280;23859;50.672;7.164;2022-09-09T00:57:07;100077.75;;;17.15;98.83
38054;BME280;23859;50.672;7.164;2022-09-09T00:59:52;100084.66;;;16.89;99.66
38054;BME280;23859;50.672;7.164;2022-09-09T01:05:07;100094.88;;;16.79;100.00
38054;BME280;23859;50.672;7.164;2022-09-09T01:07:38;99976.84;;;16.15;100.00
38054;BME280;23859;50.672;7.164;2022-09-09T01:10:11;100087.31;;;16.68;100.00
38054;BME280;23859;50.672;7.164;2022-09-09T01:12:43;100070.56;;;16.66;100.00
38054;BME280;23859;50.672;7.164;2022-09-09T01:15:22;100074.81;;;16.75;100.00
38054;BME280;23859;50.672;7.164;2022-09-09T01:18:13;100071.81;;;16.84;99.34
38054;BME280;23859;50.672;7.164;2022-09-09T01:26:15;100070.34;;;17.17;97.83
38054;BME280;23859;50.672;7.164;2022-09-09T01:28:44;100080.44;;;17.15;97.80
38054;BME280;23859;50.672;7.164;2022-09-09T01:31:19;100079.19;;;17.32;97.65
38054;BME280;23859;50.672;7.164;2022-09-09T01:33:46;100078.19;;;17.19;97.82
38054;BME280;23859;50.672;7.164;2022-09-09T01:36:32;100084.59;;;17.18;97.45
38054;BME280;23859;50.672;7.164;2022-09-09T01:39:01;100080.47;;;17.22;98.74
38054;BME280;23859;50.672;7.164;2022-09-09T01:41:27;100079.22;;;17.18;98.69
38054;BME280;23859;50.672;7.164;2022-09-09T01:43:55;100072.94;;;17.11;98.91
38054;BME280;23859;50.672;7.164;2022-09-09T01:46:22;100074.84;;;17.17;97.31
38054;BME280;23859;50.672;7.164;2022-09-09T01:48:50;100070.88;;;17.48;94.40
38054;BME280;23859;50.672;7.164;2022-09-09T01:51:17;100074.06;;;17.37;93.02
38054;BME280;23859;50.672;7.164;2022-09-09T01:53:44;100068.38;;;17.46;92.26
38054;BME280;23859;50.672;7.164;2022-09-09T01:59:24;100074.50;;;17.61;91.13
38054;BME280;23859;50.672;7.164;2022-09-09T02:02:03;100072.13;;;17.79;90.43
38054;BME280;23859;50.672;7.164;2022-09-09T02:04:42;100070.84;;;17.69;89.71
38054;BME280;23859;50.672;7.164;2022-09-09T02:10:24;100066.16;;;17.77;89.13
38054;BME280;23859;50.672;7.164;2022-09-09T02:12:53;100064.00;;;17.66;89.50
38054;BME280;23859;50.672;7.164;2022-09-09T02:15:32;100066.47;;;17.68;88.99
38054;BME280;23859;50.672;7.164;2022-09-09T02:18:03;100062.81;;;17.75;88.76
38054;BME280;23859;50.672;7.164;2022-09-09T02:20:34;100069.28;;;17.81;88.18
38054;BME280;23859;50.672;7.164;2022-09-09T02:23:02;100071.13;;;17.80;88.09
38054;BME280;23859;50.672;7.164;2022-09-09T02:25:29;100069.03;;;17.76;88.45
38054;BME280;23859;50.672;7.164;2022-09-09T02:27:56;100060.78;;;17.77;89.01
38054;BME280;23859;50.672;7.164;2022-09-09T02:30:28;100067.66;;;17.86;88.53
38054;BME280;23859;50.672;7.164;2022-09-09T02:32:57;100077.69;;;17.71;89.69
38054;BME280;23859;50.672;7.164;2022-09-09T02:35:25;100074.47;;;17.82;88.08
38054;BME280;23859;50.672;7.164;2022-09-09T02:37:56;100076.69;;;17.79;89.19
38054;BME280;23859;50.672;7.164;2022-09-09T02:40:25;100070.63;;;17.70;90.78
38054;BME280;23859;50.672;7.164;2022-09-09T02:42:51;100069.38;;;17.66;90.02
38054;BME280;23859;50.672;7.164;2022-09-09T02:45:23;100065.00;;;17.65;90.45
38054;BME280;23859;50.672;7.164;2022-09-09T02:50:41;100053.00;;;17.61;91.85
38054;BME280;23859;50.672;7.164;2022-09-09T02:53:32;100045.72;;;17.55;91.08
38054;BME280;23859;50.672;7.164;2022-09-09T02:56:05;100054.38;;;17.57;91.16
38054;BME280;23859;50.672;7.164;2022-09-09T02:58:35;100053.13;;;17.53;91.77
38054;BME280;23859;50.672;7.164;2022-09-09T03:01:02;100051.41;;;17.46;91.89
38054;BME280;23859;50.672;7.164;2022-09-09T03:03:29;100048.91;;;17.44;92.01
38054;BME280;23859;50.672;7.164;2022-09-09T03:05:56;100048.47;;;17.41;92.50
38054;BME280;23859;50.672;7.164;2022-09-09T03:08:22;100052.63;;;17.43;92.14
38054;BME280;23859;50.672;7.164;2022-09-09T03:10:49;100053.84;;;17.41;92.32
38054;BME280;23859;50.672;7.164;2022-09-09T03:13:15;100046.34;;;17.36;92.51
38054;BME280;23859;50.672;7.164;2022-09-09T03:15:42;100048.41;;;17.35;92.63
38054;BME280;23859;50.672;7.164;2022-09-09T03:18:09;100046.78;;;17.40;92.41
38054;BME280;23859;50.672;7.164;2022-09-09T03:20:35;100038.94;;;17.38;92.29
38054;BME280;23859;50.672;7.164;2022-09-09T03:23:01;100037.28;;;17.37;92.45
38054;BME280;23859;50.672;7.164;2022-09-09T03:25:28;100038.50;;;17.35;92.70
38054;BME280;23859;50.672;7.164;2022-09-09T03:27:55;100048.41;;;17.35;92.85
38054;BME280;23859;50.672;7.164;2022-09-09T03:30:22;100055.81;;;17.33;92.67
38054;BME280;23859;50.672;7.164;2022-09-09T03:32:48;100050.09;;;17.36;92.23
38054;BME280;23859;50.672;7.164;2022-09-09T03:35:14;100049.03;;;17.36;92.69
38054;BME280;23859;50.672;7.164;2022-09-09T03:37:41;100046.34;;;17.36;92.52
38054;BME280;23859;50.672;7.164;2022-09-09T03:40:08;100046.75;;;17.34;92.58
38054;BME280;23859;50.672;7.164;2022-09-09T03:42:36;100047.78;;;17.33;92.73
38054;BME280;23859;50.672;7.164;2022-09-09T03:45:04;100042.16;;;17.28;93.08
38054;BME280;23859;50.672;7.164;2022-09-09T03:47:31;100040.28;;;17.28;93.30
38054;BME280;23859;50.672;7.164;2022-09-09T03:49:57;100044.19;;;17.26;93.02
38054;BME280;23859;50.672;7.164;2022-09-09T03:52:23;100039.19;;;17.23;93.33
38054;BME280;23859;50.672;7.164;2022-09-09T03:54:51;100034.19;;;17.20;93.73
38054;BME280;23859;50.672;7.164;2022-09-09T03:57:17;100042.25;;;17.20;94.01
38054;BME280;23859;50.672;7.164;2022-09-09T03:59:43;100042.69;;;17.23;93.41
38054;BME280;23859;50.672;7.164;2022-09-09T04:02:10;100033.06;;;17.29;92.54
38054;BME280;23859;50.672;7.164;2022-09-09T04:04:36;100040.47;;;17.27;94.00
38054;BME280;23859;50.672;7.164;2022-09-09T04:07:02;100038.25;;;17.30;93.69
38054;BME280;23859;50.672;7.164;2022-09-09T04:09:28;100045.03;;;17.26;93.86
38054;BME280;23859;50.672;7.164;2022-09-09T04:11:54;100043.53;;;17.24;95.35
38054;BME280;23859;50.672;7.164;2022-09-09T04:14:21;100036.28;;;17.03;95.91
38054;BME280;23859;50.672;7.164;2022-09-09T04:16:47;100051.22;;;16.91;98.08
38054;BME280;23859;50.672;7.164;2022-09-09T04:19:14;100058.16;;;16.79;100.00
38054;BME280;23859;50.672;7.164;2022-09-09T04:21:41;100066.84;;;16.67;100.00
38054;BME280;23859;50.672;7.164;2022-09-09T04:24:08;100072.16;;;16.61;100.00
38054;BME280;23859;50.672;7.164;2022-09-09T04:26:35;100068.16;;;16.71;100.00
38054;BME280;23859;50.672;7.164;2022-09-09T04:29:03;100061.69;;;16.66;100.00
38054;BME280;23859;50.672;7.164;2022-09-09T04:31:29;100069.84;;;16.58;100.00
38054;BME280;23859;50.672;7.164;2022-09-09T04:33:55;100072.53;;;16.58;100.00
38054;BME280;23859;50.672;7.164;2022-09-09T04:36:22;100084.34;;;16.63;100.00
38054;BME280;23859;50.672;7.164;2022-09-09T04:38:48;100073.88;;;16.68;100.00
38054;BME280;23859;50.672;7.164;2022-09-09T04:41:15;100075.28;;;16.64;100.00
38054;BME280;23859;50.672;7.164;2022-09-09T04:43:42;100068.81;;;16.59;100.00
38054;BME280;23859;50.672;7.164;2022-09-09T04:46:09;100072.34;;;16.59;100.00
38054;BME280;23859;50.672;7.164;2022-09-09T04:48:35;100070.75;;;16.65;100.00
38054;BME280;23859;50.672;7.164;2022-09-09T04:51:04;100072.41;;;16.66;100.00
38054;BME280;23859;50.672;7.164;2022-09-09T04:53:31;100075.28;;;16.64;100.00
38054;BME280;23859;50.672;7.164;2022-09-09T04:56:04;100084.44;;;16.69;100.00
38054;BME280;23859;50.672;7.164;2022-09-09T04:58:31;100082.41;;;16.71;100.00
38054;BME280;23859;50.672;7.164;2022-09-09T05:01:12;100077.97;;;16.64;100.00
38054;BME280;23859;50.672;7.164;2022-09-09T05:03:39;100078.63;;;16.66;100.00
38054;BME280;23859;50.672;7.164;2022-09-09T05:06:10;100081.47;;;16.65;100.00
38054;BME280;23859;50.672;7.164;2022-09-09T05:08:37;100064.84;;;16.55;100.00
38054;BME280;23859;50.672;7.164;2022-09-09T05:13:39;100093.59;;;16.75;100.00
38054;BME280;23859;50.672;7.164;2022-09-09T05:16:05;100079.22;;;16.82;100.00
38054;BME280;23859;50.672;7.164;2022-09-09T05:18:32;100083.13;;;16.80;100.00
38054;BME280;23859;50.672;7.164;2022-09-09T05:21:00;100085.06;;;16.86;99.78
38054;BME280;23859;50.672;7.164;2022-09-09T05:23:27;100070.75;;;17.00;99.38
38054;BME280;23859;50.672;7.164;2022-09-09T05:25:57;100068.31;;;17.05;97.96
38054;BME280;23859;50.672;7.164;2022-09-09T05:28:24;100065.88;;;17.10;97.32
38054;BME280;23859;50.672;7.164;2022-09-09T05:31:02;100063.19;;;17.10;97.86
38054;BME280;23859;50.672;7.164;2022-09-09T05:33:34;100079.81;;;16.99;96.03
38054;BME280;23859;50.672;7.164;2022-09-09T05:36:03;100066.59;;;16.97;95.78
38054;BME280;23859;50.672;7.164;2022-09-09T05:38:31;100060.66;;;17.02;95.47
38054;BME280;23859;50.672;7.164;2022-09-09T05:40:59;100059.69;;;17.09;95.15
38054;BME280;23859;50.672;7.164;2022-09-09T05:43:26;100059.44;;;17.04;94.88
38054;BME280;23859;50.672;7.164;2022-09-09T05:46:16;100063.34;;;17.23;94.87
38054;BME280;23859;50.672;7.164;2022-09-09T05:48:44;100061.38;;;17.10;96.53
38054;BME280;23859;50.672;7.164;2022-09-09T05:51:16;100071.41;;;17.02;97.47
38054;BME280;23859;50.672;7.164;2022-09-09T05:53:44;100083.91;;;16.95;98.47
38054;BME280;23859;50.672;7.164;2022-09-09T05:56:18;100075.03;;;16.94;98.07
38054;BME280;23859;50.672;7.164;2022-09-09T05:58:45;100072.41;;;17.01;98.86
38054;BME280;23859;50.672;7.164;2022-09-09T06:01:17;100068.28;;;17.19;97.36
38054;BME280;23859;50.672;7.164;2022-09-09T06:03:45;100065.03;;;17.24;97.75
38054;BME280;23859;50.672;7.164;2022-09-09T06:06:14;100060.22;;;17.19;96.36
38054;BME280;23859;50.672;7.164;2022-09-09T06:08:42;100068.00;;;17.29;96.14
38054;BME280;23859;50.672;7.164;2022-09-09T06:11:14;100054.59;;;17.35;96.10
38054;BME280;23859;50.672;7.164;2022-09-09T06:13:41;100061.34;;;17.45;94.55
38054;BME280;23859;50.672;7.164;2022-09-09T06:16:13;100051.03;;;17.76;92.70
38054;BME280;23859;50.672;7.164;2022-09-09T06:18:40;100057.00;;;17.99;90.67
38054;BME280;23859;50.672;7.164;2022-09-09T06:21:14;100060.44;;;18.54;87.60
38054;BME280;23859;50.672;7.164;2022-09-09T06:23:41;100056.44;;;18.90;84.37
38054;BME280;23859;50.672;7.164;2022-09-09T06:26:15;100061.94;;;19.10;83.57
38054;BME280;23859;50.672;7.164;2022-09-09T06:28:43;100052.59;;;19.19;83.22
38054;BME280;23859;50.672;7.164;2022-09-09T06:31:11;100058.63;;;19.34;82.05
38054;BME280;23859;50.672;7.164;2022-09-09T06:33:39;100059.00;;;19.11;82.55
38054;BME280;23859;50.672;7.164;2022-09-09T06:36:13;100058.22;;;19.17;82.42
38054;BME280;23859;50.672;7.164;2022-09-09T06:38:41;100052.34;;;19.07;82.24
38054;BME280;23859;50.672;7.164;2022-09-09T06:41:09;100061.25;;;19.01;81.77
38054;BME280;23859;50.672;7.164;2022-09-09T06:43:36;100064.31;;;18.92;80.73
38054;BME280;23859;50.672;7.164;2022-09-09T06:46:03;100056.03;;;18.93;81.19
38054;BME280;23859;50.672;7.164;2022-09-09T06:48:30;100060.25;;;19.15;80.59
38054;BME280;23859;50.672;7.164;2022-09-09T06:51:16;100054.78;;;18.96;80.45
38054;BME280;23859;50.672;7.164;2022-09-09T06:53:44;100052.94;;;19.03;80.93
38054;BME280;23859;50.672;7.164;2022-09-09T06:58:40;100044.72;;;19.24;80.25
38054;BME280;23859;50.672;7.164;2022-09-09T07:01:11;100051.06;;;19.03;79.99
38054;BME280;23859;50.672;7.164;2022-09-09T07:03:39;100039.53;;;19.09;78.38
38054;BME280;23859;50.672;7.164;2022-09-09T07:06:06;100045.38;;;19.26;78.45
38054;BME280;23859;50.672;7.164;2022-09-09T07:08:33;100042.28;;;19.67;76.95
38054;BME280;23859;50.672;7.164;2022-09-09T07:11:03;100044.13;;;19.54;76.70
38054;BME280;23859;50.672;7.164;2022-09-09T07:13:33;100052.22;;;19.67;76.87
38054;BME280;23859;50.672;7.164;2022-09-09T07:16:08;100044.34;;;19.65;76.62
38054;BME280;23859;50.672;7.164;2022-09-09T07:18:35;100037.50;;;19.95;76.51
38054;BME280;23859;50.672;7.164;2022-09-09T07:21:02;100056.94;;;20.29;74.48
38054;BME280;23859;50.672;7.164;2022-09-09T07:23:30;100058.00;;;19.90;72.17
38054;BME280;23859;50.672;7.164;2022-09-09T07:25:57;100049.31;;;19.75;70.81
38054;BME280;23859;50.672;7.164;2022-09-09T07:28:24;100068.00;;;19.70;69.68
38054;BME280;23859;50.672;7.164;2022-09-09T07:31:02;100061.38;;;19.66;69.08
38054;BME280;23859;50.672;7.164;2022-09-09T07:33:29;100060.94;;;19.88;68.62
38054;BME280;23859;50.672;7.164;2022-09-09T07:38:29;100084.56;;;19.86;69.62
38054;BME280;23859;50.672;7.164;2022-09-09T07:41:07;100082.94;;;19.98;69.47
38054;BME280;23859;50.672;7.164;2022-09-09T07:43:35;100087.69;;;19.90;69.32
38054;BME280;23859;50.672;7.164;2022-09-09T07:46:01;100080.22;;;19.85;68.64
38054;BME280;23859;50.672;7.164;2022-09-09T07:48:27;100096.84;;;20.08;69.57
38054;BME280;23859;50.672;7.164;2022-09-09T07:51:10;100103.31;;;19.94;68.46
38054;BME280;23859;50.672;7.164;2022-09-09T07:53:38;100102.25;;;20.02;67.75
38054;BME280;23859;50.672;7.164;2022-09-09T07:56:10;100094.75;;;19.91;68.43
38054;BME280;23859;50.672;7.164;2022-09-09T07:58:40;100109.91;;;19.92;68.89
38054;BME280;23859;50.672;7.164;2022-09-09T08:01:30;100001.41;;;19.38;68.91
38054;BME280;23859;50.672;7.164;2022-09-09T08:04:02;100097.47;;;19.65;69.10
38054;BME280;23859;50.672;7.164;2022-09-09T08:06:31;100100.16;;;19.78;70.52
38054;BME280;23859;50.672;7.164;2022-09-09T08:08:59;100104.50;;;19.79;68.90
38054;BME280;23859;50.672;7.164;2022-09-09T08:11:27;100109.25;;;19.77;67.59
38054;BME280;23859;50.672;7.164;2022-09-09T08:13:54;100103.09;;;19.96;67.95
38054;BME280;23859;50.672;7.164;2022-09-09T08:16:23;100104.31;;;20.12;67.37
38054;BME280;23859;50.672;7.164;2022-09-09T08:18:50;100104.06;;;20.40;66.40
38054;BME280;23859;50.672;7.164;2022-09-09T08:21:25;100106.91;;;20.64;66.62
38054;BME280;23859;50.672;7.164;2022-09-09T08:23:54;100105.50;;;20.42;64.26
38054;BME280;23859;50.672;7.164;2022-09-09T08:26:26;100113.38;;;20.50;63.90
38054;BME280;23859;50.672;7.164;2022-09-09T08:28:55;100110.03;;;20.61;64.04
38054;BME280;23859;50.672;7.164;2022-09-09T08:31:49;100112.72;;;20.74;64.47
38054;BME280;23859;50.672;7.164;2022-09-09T08:34:15;100118.72;;;20.82;64.25
38054;BME280;23859;50.672;7.164;2022-09-09T08:36:44;100101.16;;;21.04;62.44
38054;BME280;23859;50.672;7.164;2022-09-09T08:39:13;100105.16;;;21.33;60.90
38054;BME280;23859;50.672;7.164;2022-09-09T08:46:53;100101.22;;;21.29;60.99
38054;BME280;23859;50.672;7.164;2022-09-09T08:52:30;100116.59;;;20.91;60.87
38054;BME280;23859;50.672;7.164;2022-09-09T08:55:10;100119.50;;;21.33;61.60
38054;BME280;23859;50.672;7.164;2022-09-09T08:57:39;100111.41;;;21.27;60.88
38054;BME280;23859;50.672;7.164;2022-09-09T09:00:07;100117.22;;;21.37;60.21
38054;BME280;23859;50.672;7.164;2022-09-09T09:02:46;100117.00;;;21.38;60.67
38054;BME280;23859;50.672;7.164;2022-09-09T09:05:30;100122.22;;;21.33;59.40
38054;BME280;23859;50.672;7.164;2022-09-09T09:10:54;100120.03;;;21.54;59.74
38054;BME280;23859;50.672;7.164;2022-09-09T09:13:45;100116.38;;;21.73;57.23
38054;BME280;23859;50.672;7.164;2022-09-09T09:16:38;100115.38;;;21.92;59.03
38054;BME280;23859;50.672;7.164;2022-09-09T09:19:07;100122.66;;;21.92;57.88
38054;BME280;23859;50.672;7.164;2022-09-09T09:24:20;100124.56;;;21.60;57.14
38054;BME280;23859;50.672;7.164;2022-09-09T09:26:49;100129.66;;;21.75;57.40
38054;BME280;23859;50.672;7.164;2022-09-09T09:29:18;100125.50;;;21.42;57.12
38054;BME280;23859;50.672;7.164;2022-09-09T09:31:51;100119.63;;;21.44;55.80
38054;BME280;23859;50.672;7.164;2022-09-09T09:34:18;100119.59;;;21.57;55.94
38054;BME280;23859;50.672;7.164;2022-09-09T09:36:52;100123.59;;;21.79;57.45
38054;BME280;23859;50.672;7.164;2022-09-09T09:39:30;100119.31;;;21.65;60.35
38054;BME280;23859;50.672;7.164;2022-09-09T09:41:57;100119.88;;;21.74;58.75
38054;BME280;23859;50.672;7.164;2022-09-09T09:44:30;100119.88;;;21.74;58.10
38054;BME280;23859;50.672;7.164;2022-09-09T09:47:19;100131.91;;;21.10;58.61
38054;BME280;23859;50.672;7.164;2022-09-09T09:49:56;100139.06;;;20.85;59.53
38054;BME280;23859;50.672;7.164;2022-09-09T09:52:26;100131.81;;;20.85;59.65
38054;BME280;23859;50.672;7.164;2022-09-09T09:54:54;100131.22;;;20.77;60.27
38054;BME280;23859;50.672;7.164;2022-09-09T09:57:31;100122.94;;;20.53;60.86
38054;BME280;23859;50.672;7.164;2022-09-09T10:00:03;100127.91;;;20.62;61.00
38054;BME280;23859;50.672;7.164;2022-09-09T10:02:38;100124.53;;;20.73;59.96
38054;BME280;23859;50.672;7.164;2022-09-09T10:05:12;100125.94;;;20.95;59.46
38054;BME280;23859;50.672;7.164;2022-09-09T10:07:39;100135.34;;;20.86;60.57
38054;BME280;23859;50.672;7.164;2022-09-09T10:10:07;100137.09;;;21.11;59.98
38054;BME280;23859;50.672;7.164;2022-09-09T10:15:26;100126.44;;;21.23;57.09
38054;BME280;23859;50.672;7.164;2022-09-09T10:20:50;100139.19;;;21.46;57.40
38054;BME280;23859;50.672;7.164;2022-09-09T10:26:35;100127.59;;;21.40;57.07
38054;BME280;23859;50.672;7.164;2022-09-09T10:34:55;100118.84;;;21.38;57.32
38054;BME280;23859;50.672;7.164;2022-09-09T10:37:51;100112.31;;;21.51;57.54
38054;BME280;23859;50.672;7.164;2022-09-09T10:40:32;100120.34;;;21.95;57.14
38054;BME280;23859;50.672;7.164;2022-09-09T10:48:53;100098.63;;;22.02;56.04
38054;BME280;23859;50.672;7.164;2022-09-09T10:56:48;100107.69;;;21.89;55.87
38054;BME280;23859;50.672;7.164;2022-09-09T10:59:22;100102.13;;;21.53;57.22
38054;BME280;23859;50.672;7.164;2022-09-09T11:04:25;100105.19;;;21.63;57.59
38054;BME280;23859;50.672;7.164;2022-09-09T11:06:56;100104.25;;;21.45;57.61
38054;BME280;23859;50.672;7.164;2022-09-09T11:09:26;100102.53;;;21.50;57.63
38054;BME280;23859;50.672;7.164;2022-09-09T11:11:54;100098.63;;;21.46;58.64
38054;BME280;23859;50.672;7.164;2022-09-09T11:17:18;100101.44;;;22.13;58.06
38054;BME280;23859;50.672;7.164;2022-09-09T11:19:45;100098.13;;;22.71;55.81
38054;BME280;23859;50.672;7.164;2022-09-09T11:22:32;100089.44;;;22.98;54.38
38054;BME280;23859;50.672;7.164;2022-09-09T11:25:05;100106.66;;;22.75;54.88
38054;BME280;23859;50.672;7.164;2022-09-09T11:27:58;100091.78;;;23.13;53.11
38054;BME280;23859;50.672;7.164;2022-09-09T11:30:33;100097.00;;;22.61;53.54
38054;BME280;23859;50.672;7.164;2022-09-09T11:38:46;100074.44;;;25.86;47.04
38054;BME280;23859;50.672;7.164;2022-09-09T11:41:14;100076.84;;;26.75;43.45
38054;BME280;23859;50.672;7.164;2022-09-09T11:46:09;100075.53;;;28.81;39.46
38054;BME280;23859;50.672;7.164;2022-09-09T11:48:38;100082.22;;;28.54;39.19
38054;BME280;23859;50.672;7.164;2022-09-09T11:51:10;100067.94;;;27.53;40.69
38054;BME280;23859;50.672;7.164;2022-09-09T11:53:54;100076.25;;;25.97;43.69
38054;BME280;23859;50.672;7.164;2022-09-09T11:56:31;100072.22;;;25.55;45.69
38054;BME280;23859;50.672;7.164;2022-09-09T11:59:02;100074.69;;;24.16;47.75
38054;BME280;23859;50.672;7.164;2022-09-09T12:01:36;100073.56;;;23.31;50.04
38054;BME280;23859;50.672;7.164;2022-09-09T12:06:33;100070.06;;;23.42;50.66
38054;BME280;23859;50.672;7.164;2022-09-09T12:12:27;100081.56;;;23.26;50.84
38054;BME280;23859;50.672;7.164;2022-09-09T12:17:45;100076.34;;;22.95;52.08
38054;BME280;23859;50.672;7.164;2022-09-09T12:20:16;100076.75;;;22.81;52.30
38054;BME280;23859;50.672;7.164;2022-09-09T12:23:05;100077.72;;;22.69;52.09
38054;BME280;23859;50.672;7.164;2022-09-09T12:28:27;100069.13;;;22.72;53.25
38054;BME280;23859;50.672;7.164;2022-09-09T12:31:05;100088.44;;;22.64;52.23
38054;BME280;23859;50.672;7.164;2022-09-09T12:33:39;100084.81;;;22.70;52.20
38054;BME280;23859;50.672;7.164;2022-09-09T12:36:14;100080.00;;;22.54;52.93
38054;BME280;23859;50.672;7.164;2022-09-09T12:38:42;100081.47;;;22.50;53.10
38054;BME280;23859;50.672;7.164;2022-09-09T12:41:23;100084.94;;;22.39;53.77
38054;BME280;23859;50.672;7.164;2022-09-09T12:43:50;100080.28;;;22.28;53.95
38054;BME280;23859;50.672;7.164;2022-09-09T12:46:38;100070.91;;;22.24;53.59
38054;BME280;23859;50.672;7.164;2022-09-09T12:49:20;100077.81;;;22.20;53.73
38054;BME280;23859;50.672;7.164;2022-09-09T12:51:50;100081.94;;;22.29;54.15
38054;BME280;23859;50.672;7.164;2022-09-09T12:54:16;100073.53;;;22.37;52.45
38054;BME280;23859;50.672;7.164;2022-09-09T12:56:46;100063.97;;;22.10;53.78
38054;BME280;23859;50.672;7.164;2022-09-09T12:59:25;100070.91;;;22.06;54.92
38054;BME280;23859;50.672;7.164;2022-09-09T13:01:59;100066.38;;;22.18;54.71
38054;BME280;23859;50.672;7.164;2022-09-09T13:04:25;100058.72;;;22.15;54.75
38054;BME280;23859;50.672;7.164;2022-09-09T13:06:51;100059.88;;;22.25;53.60
38054;BME280;23859;50.672;7.164;2022-09-09T13:09:21;100065.28;;;22.25;53.23
38054;BME280;23859;50.672;7.164;2022-09-09T13:11:53;100054.88;;;22.22;53.63
38054;BME280;23859;50.672;7.164;2022-09-09T13:14:33;100054.66;;;22.06;53.35
38054;BME280;23859;50.672;7.164;2022-09-09T13:17:04;100050.75;;;22.20;53.24
38054;BME280;23859;50.672;7.164;2022-09-09T13:19:38;100047.56;;;22.05;54.84
38054;BME280;23859;50.672;7.164;2022-09-09T13:22:13;100055.25;;;21.84;54.57
38054;BME280;23859;50.672;7.164;2022-09-09T13:24:40;100058.59;;;21.86;55.58
38054;BME280;23859;50.672;7.164;2022-09-09T13:27:30;100059.63;;;21.60;56.80
38054;BME280;23859;50.672;7.164;2022-09-09T13:29:57;100056.53;;;21.26;61.83
38054;BME280;23859;50.672;7.164;2022-09-09T13:32:25;100068.28;;;21.07;60.48
38054;BME280;23859;50.672;7.164;2022-09-09T13:34:57;100063.25;;;21.11;62.00
38054;BME280;23859;50.672;7.164;2022-09-09T13:37:34;100058.63;;;21.48;60.73
38054;BME280;23859;50.672;7.164;2022-09-09T13:40:03;100050.84;;;21.89;57.86
38054;BME280;23859;50.672;7.164;2022-09-09T13:42:34;100046.53;;;22.24;58.27
38054;BME280;23859;50.672;7.164;2022-09-09T13:45:03;100044.13;;;22.16;57.72
38054;BME280;23859;50.672;7.164;2022-09-09T13:47:31;100059.47;;;22.22;56.82
38054;BME280;23859;50.672;7.164;2022-09-09T13:49:57;100043.81;;;22.06;56.81
38054;BME280;23859;50.672;7.164;2022-09-09T13:52:24;100061.19;;;21.99;56.66
38054;BME280;23859;50.672;7.164;2022-09-09T13:54:53;100049.28;;;22.00;57.44
38054;BME280;23859;50.672;7.164;2022-09-09T13:57:22;100046.22;;;22.14;57.94
38054;BME280;23859;50.672;7.164;2022-09-09T13:59:49;100047.00;;;22.21;58.77
38054;BME280;23859;50.672;7.164;2022-09-09T14:02:15;100055.44;;;22.31;57.73
38054;BME280;23859;50.672;7.164;2022-09-09T14:04:43;100047.13;;;22.26;58.66
38054;BME280;23859;50.672;7.164;2022-09-09T14:07:12;100041.53;;;22.27;58.67
38054;BME280;23859;50.672;7.164;2022-09-09T14:09:40;100035.84;;;22.11;58.68
38054;BME280;23859;50.672;7.164;2022-09-09T14:12:12;100040.69;;;22.27;59.16
38054;BME280;23859;50.672;7.164;2022-09-09T14:14:39;100041.44;;;22.34;58.33
38054;BME280;23859;50.672;7.164;2022-09-09T14:17:05;100044.69;;;22.42;57.66
38054;BME280;23859;50.672;7.164;2022-09-09T14:19:31;100053.16;;;22.10;57.71
38054;BME280;23859;50.672;7.164;2022-09-09T14:21:58;100055.13;;;22.21;58.16
38054;BME280;23859;50.672;7.164;2022-09-09T14:24:24;100039.78;;;21.91;59.25
38054;BME280;23859;50.672;7.164;2022-09-09T14:26:51;100041.53;;;22.03;59.84
38054;BME280;23859;50.672;7.164;2022-09-09T14:29:17;100041.13;;;22.06;59.46
38054;BME280;23859;50.672;7.164;2022-09-09T14:31:43;100046.47;;;21.88;59.67
38054;BME280;23859;50.672;7.164;2022-09-09T14:34:09;100041.16;;;21.75;59.42
38054;BME280;23859;50.672;7.164;2022-09-09T14:36:37;100051.66;;;21.65;59.25
38054;BME280;23859;50.672;7.164;2022-09-09T14:39:04;100054.66;;;21.51;59.55
38054;BME280;23859;50.672;7.164;2022-09-09T14:41:30;100050.63;;;21.36;60.25
38054;BME280;23859;50.672;7.164;2022-09-09T14:43:56;100053.41;;;21.29;61.65
38054;BME280;23859;50.672;7.164;2022-09-09T14:46:23;100054.63;;;21.27;62.16
38054;BME280;23859;50.672;7.164;2022-09-09T14:48:49;100051.16;;;21.20;62.31
38054;BME280;23859;50.672;7.164;2022-09-09T14:51:20;100062.66;;;21.09;63.46